Time;durP1;ratioP1;P1;durP2;ratioP2;P2;SDS_P1;SDS_P2;PMS_P1;PMS_P2;Temp;Humidity;BMP_temperature;BMP_pressure;BME280_temperature;BME280_humidity;BME280_pressure;Samples;Min_cycle;Max_cycle;Signal;HPM_P1;HPM_P2
2022/03/28 00:00:25;;;;;;;;;;;20.90;27.60;;;;;;5162811;27;19923;-55
2022/03/28 00:02:51;;;;;;;;;;;21.20;27.30;;;;;;5162607;27;19929;-58
2022/03/28 00:05:17;;;;;;;;;;;21.00;27.60;;;;;;5168876;27;19923;-60
2022/03/28 00:07:43;;;;;;;;;;;21.20;27.30;;;;;;5164072;27;19929;-58
2022/03/28 00:10:09;;;;;;;;;;;21.10;27.60;;;;;;5166991;27;19928;-57
2022/03/28 00:12:35;;;;;;;;;;;21.20;27.40;;;;;;5172490;27;19970;-58
2022/03/28 00:15:01;;;;;;;;;;;21.00;27.70;;;;;;5166719;27;19994;-61
2022/03/28 00:17:27;;;;;;;;;;;21.20;27.40;;;;;;5153601;27;19926;-59
2022/03/28 00:19:53;;;;;;;;;;;21.10;27.60;;;;;;5166789;27;19922;-60
2022/03/28 00:22:19;;;;;;;;;;;21.20;27.40;;;;;;5165997;27;19923;-58
2022/03/28 00:24:44;;;;;;;;;;;21.00;27.60;;;;;;5167898;27;19933;-56
2022/03/28 00:27:10;;;;;;;;;;;21.00;27.60;;;;;;5165689;27;19927;-50
2022/03/28 00:29:36;;;;;;;;;;;21.20;27.40;;;;;;5166580;27;20245;-58
2022/03/28 00:32:02;;;;;;;;;;;21.10;27.60;;;;;;5171966;27;20013;-48
2022/03/28 00:34:28;;;;;;;;;;;21.20;27.60;;;;;;5166378;27;19987;-51
2022/03/28 00:36:54;;;;;;;;;;;21.00;27.70;;;;;;5153279;27;19927;-59
2022/03/28 00:39:20;;;;;;;;;;;21.20;27.50;;;;;;5147793;27;20412;-55
2022/03/28 00:41:49;;;;;;;;;;;20.90;27.80;;;;;;5164645;27;19927;-57
2022/03/28 00:44:15;;;;;;;;;;;21.20;27.40;;;;;;5168219;27;19929;-59
2022/03/28 00:46:41;;;;;;;;;;;20.80;27.80;;;;;;5147646;27;19926;-60
2022/03/28 00:49:07;;;;;;;;;;;21.20;27.50;;;;;;5166022;27;20363;-57
2022/03/28 00:51:32;;;;;;;;;;;20.90;27.80;;;;;;5172017;27;19948;-59
2022/03/28 00:53:59;;;;;;;;;;;21.20;27.40;;;;;;5166211;27;19927;-58
2022/03/28 00:56:24;;;;;;;;;;;21.00;27.60;;;;;;5169750;27;19927;-55
2022/03/28 00:58:50;;;;;;;;;;;21.10;27.40;;;;;;5167548;27;20358;-59
2022/03/28 01:01:16;;;;;;;;;;;21.00;27.60;;;;;;5162412;27;19930;-60
2022/03/28 01:03:42;;;;;;;;;;;21.20;27.40;;;;;;5170026;27;19926;-58
2022/03/28 01:06:08;;;;;;;;;;;21.10;27.50;;;;;;5165838;27;20369;-58
2022/03/28 01:08:34;;;;;;;;;;;21.00;27.50;;;;;;5166130;27;19923;-58
2022/03/28 01:11:04;;;;;;;;;;;21.00;27.70;;;;;;5171406;27;19929;-59
2022/03/28 01:13:30;;;;;;;;;;;21.20;27.30;;;;;;5165761;27;20298;-58
2022/03/28 01:15:56;;;;;;;;;;;21.10;27.40;;;;;;5146103;27;19927;-55
2022/03/28 01:18:22;;;;;;;;;;;21.10;27.40;;;;;;5169632;27;19962;-56
2022/03/28 01:20:48;;;;;;;;;;;21.20;27.30;;;;;;5161684;27;20021;-48
2022/03/28 01:23:13;;;;;;;;;;;21.00;27.40;;;;;;5171077;27;20289;-51
2022/03/28 01:25:39;;;;;;;;;;;21.20;27.20;;;;;;5165700;27;19954;-50
2022/03/28 01:28:05;;;;;;;;;;;21.00;27.50;;;;;;5147138;27;19930;-61
2022/03/28 01:30:31;;;;;;;;;;;21.30;27.10;;;;;;5171054;27;19938;-58
2022/03/28 01:32:57;;;;;;;;;;;20.90;27.60;;;;;;5165523;27;19926;-58
2022/03/28 01:35:33;;;;;;;;;;;21.20;27.10;;;;;;5146519;27;20032;-58
2022/03/28 01:37:59;;;;;;;;;;;20.90;27.40;;;;;;5167263;27;19923;-56
2022/03/28 01:40:26;;;;;;;;;;;21.10;27.10;;;;;;5145247;27;19927;-58
2022/03/28 01:42:51;;;;;;;;;;;21.20;27.00;;;;;;5169055;27;19951;-55
2022/03/28 01:45:18;;;;;;;;;;;21.00;27.00;;;;;;5148579;27;20362;-59
2022/03/28 01:47:47;;;;;;;;;;;21.00;27.10;;;;;;5165133;27;19974;-61
2022/03/28 01:50:13;;;;;;;;;;;21.10;27.00;;;;;;5170480;27;19927;-58
2022/03/28 01:52:39;;;;;;;;;;;21.10;26.90;;;;;;5164849;27;19932;-61
2022/03/28 01:55:05;;;;;;;;;;;21.10;27.00;;;;;;5163569;27;20354;-50
2022/03/28 01:57:31;;;;;;;;;;;21.10;27.00;;;;;;5166317;27;19922;-54
2022/03/28 01:59:57;;;;;;;;;;;20.90;27.00;;;;;;5164462;27;19957;-49
2022/03/28 02:02:23;;;;;;;;;;;21.10;26.90;;;;;;5164783;27;19926;-53
2022/03/28 02:04:48;;;;;;;;;;;21.00;27.00;;;;;;5170134;27;19990;-55
2022/03/28 02:07:16;;;;;;;;;;;21.30;26.70;;;;;;5146051;27;19926;-47
2022/03/28 02:09:41;;;;;;;;;;;20.90;27.00;;;;;;5170144;27;20374;-55
2022/03/28 02:12:07;;;;;;;;;;;21.20;26.70;;;;;;5164603;27;19944;-58
2022/03/28 02:14:34;;;;;;;;;;;21.00;27.00;;;;;;5160712;27;19926;-59
2022/03/28 02:16:59;;;;;;;;;;;21.20;26.70;;;;;;5167641;27;19970;-58
2022/03/28 02:19:25;;;;;;;;;;;20.90;27.00;;;;;;5164404;27;19927;-56
2022/03/28 02:21:51;;;;;;;;;;;21.20;26.60;;;;;;5164236;27;20199;-58
2022/03/28 02:24:17;;;;;;;;;;;21.00;26.80;;;;;;5169945;27;19923;-59
2022/03/28 02:26:43;;;;;;;;;;;21.10;26.60;;;;;;5164171;27;19967;-59
2022/03/28 02:29:08;;;;;;;;;;;21.10;26.80;;;;;;5169614;27;19938;-58
2022/03/28 02:31:34;;;;;;;;;;;21.20;26.50;;;;;;5163588;27;20435;-56
2022/03/28 02:34:00;;;;;;;;;;;20.90;26.70;;;;;;5160530;27;20025;-60
2022/03/28 02:36:26;;;;;;;;;;;21.10;26.50;;;;;;5168950;27;20302;-57
2022/03/28 02:38:52;;;;;;;;;;;20.90;26.70;;;;;;5164256;27;20512;-58
2022/03/28 02:41:17;;;;;;;;;;;21.20;26.30;;;;;;5164294;27;19965;-56
2022/03/28 02:43:43;;;;;;;;;;;20.90;26.60;;;;;;5169381;27;19929;-54
2022/03/28 02:46:09;;;;;;;;;;;21.20;26.10;;;;;;5164162;27;19922;-59
2022/03/28 02:48:35;;;;;;;;;;;21.00;26.30;;;;;;5169518;27;20267;-49
2022/03/28 02:51:01;;;;;;;;;;;21.00;26.30;;;;;;5162252;27;19927;-57
2022/03/28 02:53:26;;;;;;;;;;;21.10;26.10;;;;;;5160366;27;19922;-59
2022/03/28 02:55:52;;;;;;;;;;;21.00;26.30;;;;;;5169099;27;19929;-56
2022/03/28 02:58:18;;;;;;;;;;;21.20;26.00;;;;;;5163773;27;19927;-56
2022/03/28 03:00:44;;;;;;;;;;;20.90;26.10;;;;;;5145214;27;19958;-58
2022/03/28 03:03:09;;;;;;;;;;;21.00;25.90;;;;;;5168900;27;19953;-59
2022/03/28 03:05:35;;;;;;;;;;;21.00;26.10;;;;;;5163574;27;19934;-53
2022/03/28 03:08:01;;;;;;;;;;;21.10;26.00;;;;;;5167123;27;19927;-58
2022/03/28 03:10:27;;;;;;;;;;;21.10;26.10;;;;;;5161830;27;19923;-57
2022/03/28 03:12:52;;;;;;;;;;;21.00;26.10;;;;;;5162157;27;19922;-58
2022/03/28 03:15:18;;;;;;;;;;;21.10;26.10;;;;;;5169037;27;20267;-58
2022/03/28 03:17:44;;;;;;;;;;;21.10;26.00;;;;;;5163421;27;20035;-60
2022/03/28 03:20:11;;;;;;;;;;;21.10;26.00;;;;;;5163678;27;19923;-56
2022/03/28 03:22:36;;;;;;;;;;;20.90;26.10;;;;;;5168512;27;19923;-58
2022/03/28 03:25:02;;;;;;;;;;;21.10;25.90;;;;;;5163521;27;19962;-56
2022/03/28 03:27:28;;;;;;;;;;;21.00;26.10;;;;;;5163277;27;20172;-54
2022/03/28 03:29:54;;;;;;;;;;;21.20;25.90;;;;;;5163814;27;19923;-55
2022/03/28 03:32:20;;;;;;;;;;;20.90;26.30;;;;;;5163198;27;19926;-57
2022/03/28 03:34:46;;;;;;;;;;;21.10;26.10;;;;;;5168708;27;19926;-58
2022/03/28 03:37:11;;;;;;;;;;;21.10;26.10;;;;;;5163280;27;19952;-59
2022/03/28 03:39:37;;;;;;;;;;;21.10;26.10;;;;;;5167761;27;19923;-57
2022/03/28 03:42:03;;;;;;;;;;;21.00;26.20;;;;;;5175699;27;20336;-56
2022/03/28 03:44:29;;;;;;;;;;;21.20;26.10;;;;;;5169621;27;20381;-60
2022/03/28 03:46:55;;;;;;;;;;;20.80;26.40;;;;;;5167159;27;20017;-50
2022/03/28 03:49:21;;;;;;;;;;;21.20;26.10;;;;;;5172762;27;20388;-56
2022/03/28 03:51:47;;;;;;;;;;;21.10;26.20;;;;;;5169955;27;19927;-57
2022/03/28 03:54:12;;;;;;;;;;;21.20;26.10;;;;;;5175463;27;19923;-59
2022/03/28 03:56:38;;;;;;;;;;;21.10;26.20;;;;;;5169983;27;19922;-59
2022/03/28 03:59:04;;;;;;;;;;;21.00;26.20;;;;;;5169985;27;19923;-54
2022/03/28 04:01:30;;;;;;;;;;;21.10;26.10;;;;;;5175422;27;19966;-57
2022/03/28 04:03:56;;;;;;;;;;;20.80;26.40;;;;;;5169019;27;20405;-57
2022/03/28 04:06:21;;;;;;;;;;;21.10;26.00;;;;;;5165969;27;19949;-59
2022/03/28 04:08:47;;;;;;;;;;;21.10;26.00;;;;;;5174365;27;19933;-59
2022/03/28 04:11:13;;;;;;;;;;;21.00;26.10;;;;;;5151355;27;19929;-56
2022/03/28 04:13:39;;;;;;;;;;;21.10;26.00;;;;;;5175398;27;20014;-56
2022/03/28 04:16:05;;;;;;;;;;;21.00;26.10;;;;;;5169959;27;19923;-57
2022/03/28 04:18:31;;;;;;;;;;;21.10;26.00;;;;;;5169694;27;20438;-57
2022/03/28 04:20:57;;;;;;;;;;;21.10;26.00;;;;;;5156307;27;19927;-50
2022/03/28 04:23:23;;;;;;;;;;;21.00;26.00;;;;;;5167891;27;19927;-60
2022/03/28 04:25:49;;;;;;;;;;;21.10;25.80;;;;;;5166192;27;20261;-52
2022/03/28 04:28:15;;;;;;;;;;;20.90;25.90;;;;;;5175021;27;19926;-58
2022/03/28 04:30:40;;;;;;;;;;;21.10;25.80;;;;;;5169701;27;20475;-58
2022/03/28 04:33:09;;;;;;;;;;;20.90;26.00;;;;;;5175063;27;19992;-60
2022/03/28 04:35:35;;;;;;;;;;;21.10;25.70;;;;;;5170947;27;20013;-59
2022/03/28 04:38:03;;;;;;;;;;;21.10;25.60;;;;;;5169606;27;20009;-60
2022/03/28 04:40:28;;;;;;;;;;;20.90;25.80;;;;;;5174776;27;20308;-48
2022/03/28 04:42:54;;;;;;;;;;;21.20;25.40;;;;;;5166548;27;19927;-58
2022/03/28 04:45:20;;;;;;;;;;;21.00;25.70;;;;;;5168137;27;19923;-58
2022/03/28 04:47:45;;;;;;;;;;;21.20;25.50;;;;;;5175135;27;19962;-59
2022/03/28 04:50:11;;;;;;;;;;;21.10;25.70;;;;;;5149453;27;19971;-57
2022/03/28 04:52:37;;;;;;;;;;;21.10;25.60;;;;;;5167396;27;19922;-58
2022/03/28 04:55:04;;;;;;;;;;;21.10;25.70;;;;;;5170293;27;19922;-49
2022/03/28 04:57:30;;;;;;;;;;;20.90;25.80;;;;;;5166186;27;19929;-58
2022/03/28 04:59:56;;;;;;;;;;;21.20;25.60;;;;;;5170618;27;19923;-56
2022/03/28 05:02:22;;;;;;;;;;;21.00;25.70;;;;;;5162178;27;19927;-60
2022/03/28 05:04:48;;;;;;;;;;;21.00;25.80;;;;;;5165967;27;20281;-57
2022/03/28 05:07:21;;;;;;;;;;;21.00;25.80;;;;;;5171518;27;19923;-55
2022/03/28 05:09:47;;;;;;;;;;;21.20;25.50;;;;;;5165848;27;19929;-48
2022/03/28 05:12:13;;;;;;;;;;;21.10;25.70;;;;;;5165730;27;19923;-58
2022/03/28 05:14:39;;;;;;;;;;;21.20;25.50;;;;;;5171247;27;20387;-59
2022/03/28 05:17:05;;;;;;;;;;;20.90;25.70;;;;;;5165556;27;19922;-58
2022/03/28 05:19:31;;;;;;;;;;;21.10;25.50;;;;;;5168350;27;20002;-59
2022/03/28 05:21:58;;;;;;;;;;;20.80;25.70;;;;;;5163155;27;19923;-60
2022/03/28 05:24:24;;;;;;;;;;;21.10;25.50;;;;;;5146912;27;19936;-47
2022/03/28 05:26:49;;;;;;;;;;;21.10;25.40;;;;;;5170988;27;19930;-57
2022/03/28 05:29:15;;;;;;;;;;;21.10;25.40;;;;;;5165659;27;19987;-52
2022/03/28 05:31:41;;;;;;;;;;;21.00;25.40;;;;;;5165408;27;20042;-58
2022/03/28 05:34:07;;;;;;;;;;;21.10;25.30;;;;;;5171110;27;19923;-50
2022/03/28 05:36:33;;;;;;;;;;;21.00;25.30;;;;;;5165007;27;19932;-59
2022/03/28 05:38:59;;;;;;;;;;;21.10;25.30;;;;;;5165419;27;19930;-56
2022/03/28 05:41:25;;;;;;;;;;;21.00;25.40;;;;;;5166566;27;20369;-51
2022/03/28 05:43:51;;;;;;;;;;;21.20;25.20;;;;;;5165316;27;19930;-58
2022/03/28 05:46:18;;;;;;;;;;;21.00;25.40;;;;;;5170886;27;19923;-59
2022/03/28 05:48:44;;;;;;;;;;;21.10;25.20;;;;;;5165421;27;19923;-60
2022/03/28 05:51:10;;;;;;;;;;;21.00;25.60;;;;;;5164958;27;19945;-57
2022/03/28 05:53:35;;;;;;;;;;;21.30;25.20;;;;;;5170550;27;19922;-61
2022/03/28 05:56:03;;;;;;;;;;;21.00;25.50;;;;;;5163344;27;19922;-52
2022/03/28 05:58:29;;;;;;;;;;;21.00;25.40;;;;;;5161859;27;19922;-57
2022/03/28 06:00:58;;;;;;;;;;;21.10;25.40;;;;;;5170409;27;19927;-51
2022/03/28 06:03:24;;;;;;;;;;;21.00;25.60;;;;;;5164311;27;19927;-58
2022/03/28 06:05:50;;;;;;;;;;;21.10;25.50;;;;;;5170189;27;19934;-59
2022/03/28 06:08:15;;;;;;;;;;;20.90;25.60;;;;;;5164544;27;19971;-54
2022/03/28 06:10:41;;;;;;;;;;;21.30;25.30;;;;;;5164840;27;19929;-58
2022/03/28 06:13:08;;;;;;;;;;;21.00;25.60;;;;;;5169885;27;19930;-54
2022/03/28 06:15:36;;;;;;;;;;;21.20;25.40;;;;;;5161380;27;20521;-60
2022/03/28 06:18:03;;;;;;;;;;;20.90;25.70;;;;;;5163212;27;20009;-50
2022/03/28 06:20:29;;;;;;;;;;;21.20;25.30;;;;;;5170024;27;20270;-59
2022/03/28 06:22:55;;;;;;;;;;;21.00;25.60;;;;;;5164519;27;19930;-50
2022/03/28 06:25:21;;;;;;;;;;;21.20;25.40;;;;;;5169900;27;20415;-58
2022/03/28 06:27:47;;;;;;;;;;;21.00;25.80;;;;;;5164408;27;19927;-58
2022/03/28 06:30:13;;;;;;;;;;;21.20;25.50;;;;;;5163889;27;19929;-56
2022/03/28 06:32:41;;;;;;;;;;;21.10;25.60;;;;;;5168514;27;19922;-57
2022/03/28 06:35:08;;;;;;;;;;;20.90;25.80;;;;;;5160562;27;19923;-57
2022/03/28 06:37:36;;;;;;;;;;;21.10;25.60;;;;;;5164046;27;19923;-56
2022/03/28 06:40:03;;;;;;;;;;;21.00;25.70;;;;;;5169763;27;19923;-57
2022/03/28 06:42:32;;;;;;;;;;;21.20;25.50;;;;;;5164139;27;20029;-58
2022/03/28 06:44:58;;;;;;;;;;;21.10;25.60;;;;;;5164317;27;20395;-57
2022/03/28 06:47:24;;;;;;;;;;;21.00;25.70;;;;;;5150829;27;19931;-55
2022/03/28 06:49:50;;;;;;;;;;;21.20;25.50;;;;;;5163330;27;19923;-58
2022/03/28 06:52:15;;;;;;;;;;;21.00;25.60;;;;;;5165981;27;19923;-57
2022/03/28 06:54:42;;;;;;;;;;;21.10;25.60;;;;;;5161976;27;19926;-58
2022/03/28 06:57:08;;;;;;;;;;;21.10;25.70;;;;;;5163873;27;19922;-59
2022/03/28 06:59:33;;;;;;;;;;;21.10;25.70;;;;;;5169222;27;19923;-60
2022/03/28 07:01:59;;;;;;;;;;;21.00;25.80;;;;;;5163824;27;19930;-56
2022/03/28 07:04:25;;;;;;;;;;;21.10;25.60;;;;;;5163769;27;19922;-58
2022/03/28 07:06:51;;;;;;;;;;;21.00;25.70;;;;;;5168922;27;19931;-57
2022/03/28 07:09:17;;;;;;;;;;;21.20;25.80;;;;;;5162599;27;20288;-52
2022/03/28 07:11:43;;;;;;;;;;;20.80;26.60;;;;;;5164877;27;19923;-55
2022/03/28 07:14:09;;;;;;;;;;;21.00;26.70;;;;;;5162222;27;20397;-57
2022/03/28 07:16:35;;;;;;;;;;;20.30;27.60;;;;;;5163484;27;19922;-56
2022/03/28 07:19:01;;;;;;;;;;;20.90;27.00;;;;;;5168941;27;19923;-47
2022/03/28 07:21:26;;;;;;;;;;;19.80;27.20;;;;;;5163682;27;19986;-47
2022/03/28 07:23:53;;;;;;;;;;;18.50;29.20;;;;;;5163552;27;19922;-47
2022/03/28 07:26:19;;;;;;;;;;;18.20;29.80;;;;;;5168724;27;19926;-47
2022/03/28 07:28:45;;;;;;;;;;;18.00;30.20;;;;;;5161436;27;19936;-47
2022/03/28 07:31:11;;;;;;;;;;;18.00;30.20;;;;;;5165747;27;19938;-50
2022/03/28 07:33:43;;;;;;;;;;;17.90;30.20;;;;;;5163994;27;20026;-48
2022/03/28 07:36:08;;;;;;;;;;;17.80;30.20;;;;;;5163539;27;20386;-46
2022/03/28 07:38:35;;;;;;;;;;;17.90;30.30;;;;;;5168474;27;19968;-47
2022/03/28 07:41:01;;;;;;;;;;;17.90;30.30;;;;;;5163364;27;19927;-47
2022/03/28 07:43:27;;;;;;;;;;;17.90;30.30;;;;;;5163157;27;20326;-47
2022/03/28 07:45:54;;;;;;;;;;;18.00;30.10;;;;;;5168396;27;19945;-47
2022/03/28 07:48:21;;;;;;;;;;;18.10;30.10;;;;;;5141093;27;19929;-47
2022/03/28 07:50:47;;;;;;;;;;;18.10;29.90;;;;;;5162519;27;19929;-47
2022/03/28 07:53:14;;;;;;;;;;;18.20;29.90;;;;;;5168593;27;20361;-48
2022/03/28 07:55:40;;;;;;;;;;;18.30;29.90;;;;;;5163346;27;19929;-47
2022/03/28 07:58:06;;;;;;;;;;;18.30;29.70;;;;;;5168465;27;20380;-47
2022/03/28 08:00:32;;;;;;;;;;;18.30;29.70;;;;;;5163118;27;20437;-47
2022/03/28 08:02:58;;;;;;;;;;;18.40;29.60;;;;;;5163197;27;19927;-47
2022/03/28 08:05:24;;;;;;;;;;;18.50;29.50;;;;;;5166868;27;19922;-48
2022/03/28 08:07:50;;;;;;;;;;;18.60;29.30;;;;;;5159665;27;20163;-48
2022/03/28 08:10:16;;;;;;;;;;;18.60;29.20;;;;;;5163189;27;20244;-48
2022/03/28 08:12:43;;;;;;;;;;;18.70;29.10;;;;;;5168354;27;19933;-47
2022/03/28 08:15:10;;;;;;;;;;;18.70;29.10;;;;;;5163189;27;19937;-48
2022/03/28 08:17:36;;;;;;;;;;;18.80;29.00;;;;;;5149709;27;19941;-47
2022/03/28 08:20:03;;;;;;;;;;;18.80;28.90;;;;;;5163208;27;19927;-47
2022/03/28 08:22:29;;;;;;;;;;;18.80;28.90;;;;;;5162728;27;19922;-46
2022/03/28 08:24:55;;;;;;;;;;;18.90;28.90;;;;;;5165471;27;20331;-50
2022/03/28 08:27:21;;;;;;;;;;;19.00;28.80;;;;;;5148328;27;19923;-47
2022/03/28 08:29:46;;;;;;;;;;;19.00;28.80;;;;;;5146192;27;20221;-47
2022/03/28 08:32:12;;;;;;;;;;;19.10;28.80;;;;;;5151294;27;19942;-47
2022/03/28 08:34:38;;;;;;;;;;;19.10;28.90;;;;;;5145993;27;19923;-47
2022/03/28 08:37:04;;;;;;;;;;;19.10;28.80;;;;;;5149184;27;19930;-51
2022/03/28 08:39:30;;;;;;;;;;;19.20;28.90;;;;;;5148384;27;19923;-47
2022/03/28 08:41:56;;;;;;;;;;;19.20;28.90;;;;;;5144695;27;19972;-49
2022/03/28 08:44:23;;;;;;;;;;;19.20;28.90;;;;;;5147125;27;20373;-47
2022/03/28 08:46:49;;;;;;;;;;;19.30;28.70;;;;;;5145898;27;20014;-47
2022/03/28 08:49:17;;;;;;;;;;;19.30;28.70;;;;;;5145577;27;19932;-47
2022/03/28 08:51:43;;;;;;;;;;;19.30;28.60;;;;;;5132730;27;19927;-47
2022/03/28 08:54:09;;;;;;;;;;;19.30;28.50;;;;;;5145611;27;19923;-47
2022/03/28 08:56:35;;;;;;;;;;;19.40;28.40;;;;;;5145619;27;19927;-46
2022/03/28 08:59:00;;;;;;;;;;;19.30;28.40;;;;;;5150709;27;19927;-48
2022/03/28 09:01:26;;;;;;;;;;;19.50;28.40;;;;;;5142739;27;19927;-47
2022/03/28 09:03:52;;;;;;;;;;;19.50;28.40;;;;;;5129570;27;20010;-46
2022/03/28 09:06:27;;;;;;;;;;;19.50;28.50;;;;;;5126933;27;20366;-47
2022/03/28 09:08:53;;;;;;;;;;;19.60;28.80;;;;;;5145440;27;19946;-49
2022/03/28 09:11:22;;;;;;;;;;;19.60;28.70;;;;;;5150860;27;19945;-47
2022/03/28 09:13:48;;;;;;;;;;;19.70;28.60;;;;;;5145198;27;19927;-46
2022/03/28 09:16:18;;;;;;;;;;;19.80;28.50;;;;;;5145104;27;20194;-46
2022/03/28 09:18:43;;;;;;;;;;;19.80;28.60;;;;;;5131032;27;20344;-50
2022/03/28 09:21:14;;;;;;;;;;;19.80;28.50;;;;;;5141618;27;19923;-49
2022/03/28 09:23:41;;;;;;;;;;;19.80;28.30;;;;;;5144974;27;20066;-49
2022/03/28 09:26:07;;;;;;;;;;;19.80;28.10;;;;;;5150569;27;20370;-47
2022/03/28 09:28:47;;;;;;;;;;;19.90;28.00;;;;;;5144992;27;20449;-47
2022/03/28 09:31:33;;;;;;;;;;;19.90;28.10;;;;;;5149589;27;20599;-51
2022/03/28 09:34:03;;;;;;;;;;;20.00;28.00;;;;;;5150211;27;19923;-48
2022/03/28 09:36:35;;;;;;;;;;;20.10;27.90;;;;;;5125535;27;19945;-50
2022/03/28 09:39:01;;;;;;;;;;;20.00;27.80;;;;;;5143968;27;19923;-51
2022/03/28 09:41:28;;;;;;;;;;;20.00;27.70;;;;;;5146425;27;19923;-46
2022/03/28 09:43:54;;;;;;;;;;;20.00;27.80;;;;;;5144999;27;19927;-46
2022/03/28 09:46:26;;;;;;;;;;;20.10;27.60;;;;;;5149619;27;19929;-58
2022/03/28 09:48:53;;;;;;;;;;;20.80;27.00;;;;;;5144144;27;19923;-57
2022/03/28 09:51:21;;;;;;;;;;;20.90;26.70;;;;;;5144154;27;19931;-59
2022/03/28 09:53:47;;;;;;;;;;;21.00;26.50;;;;;;5149512;27;20022;-59
2022/03/28 09:56:13;;;;;;;;;;;20.90;26.60;;;;;;5142537;27;19923;-58
2022/03/28 09:58:49;;;;;;;;;;;20.90;26.50;;;;;;5140539;27;20102;-60
2022/03/28 10:01:21;;;;;;;;;;;21.00;26.40;;;;;;5149670;27;19926;-59
2022/03/28 10:03:48;;;;;;;;;;;21.00;26.40;;;;;;5125435;27;19935;-60
2022/03/28 10:06:14;;;;;;;;;;;21.60;25.70;;;;;;5144140;27;19982;-57
2022/03/28 10:08:40;;;;;;;;;;;21.40;26.00;;;;;;5149314;27;20393;-57
2022/03/28 10:11:06;;;;;;;;;;;21.30;26.20;;;;;;5143637;27;19970;-57
2022/03/28 10:13:32;;;;;;;;;;;21.30;26.20;;;;;;5148689;27;20297;-60
2022/03/28 10:15:58;;;;;;;;;;;21.30;26.20;;;;;;5139598;27;19923;-59
2022/03/28 10:18:27;;;;;;;;;;;21.30;26.00;;;;;;5142601;27;19929;-62
2022/03/28 10:20:54;;;;;;;;;;;21.30;26.20;;;;;;5149064;27;19930;-61
2022/03/28 10:23:22;;;;;;;;;;;21.30;26.40;;;;;;5143443;27;19924;-57
2022/03/28 10:25:47;;;;;;;;;;;21.40;26.30;;;;;;5125058;27;20259;-60
2022/03/28 10:28:14;;;;;;;;;;;21.40;26.30;;;;;;5130465;27;20429;-62
2022/03/28 10:30:40;;;;;;;;;;;21.50;26.30;;;;;;5124965;27;19923;-61
2022/03/28 10:33:06;;;;;;;;;;;21.50;26.50;;;;;;5147354;27;19929;-61
2022/03/28 10:35:32;;;;;;;;;;;21.60;26.40;;;;;;5140034;27;19923;-59
2022/03/28 10:38:12;;;;;;;;;;;21.60;26.50;;;;;;5143375;27;20331;-61
2022/03/28 10:40:41;;;;;;;;;;;21.50;26.80;;;;;;5148820;27;19931;-61
2022/03/28 10:43:11;;;;;;;;;;;21.60;26.80;;;;;;5124864;27;19927;-60
2022/03/28 10:45:38;;;;;;;;;;;21.70;26.70;;;;;;5143282;27;19933;-59
2022/03/28 10:48:07;;;;;;;;;;;21.60;26.80;;;;;;5148014;27;19967;-58
2022/03/28 10:50:36;;;;;;;;;;;21.80;26.70;;;;;;5142073;27;20388;-61
2022/03/28 10:53:11;;;;;;;;;;;21.80;26.80;;;;;;5139023;27;19923;-61
2022/03/28 10:55:44;;;;;;;;;;;21.80;26.70;;;;;;5147894;27;19927;-59
2022/03/28 10:58:13;;;;;;;;;;;21.90;26.60;;;;;;5143023;27;19931;-58
2022/03/28 11:00:59;;;;;;;;;;;21.80;26.60;;;;;;5142828;27;20328;-59
2022/03/28 11:03:44;;;;;;;;;;;21.90;26.40;;;;;;5148122;27;19976;-60
2022/03/28 11:06:10;;;;;;;;;;;21.90;26.10;;;;;;5142807;27;20444;-59
2022/03/28 11:08:36;;;;;;;;;;;22.00;26.10;;;;;;5142213;27;20374;-59
2022/03/28 11:11:31;;;;;;;;;;;21.90;26.10;;;;;;5144573;27;20370;-58
2022/03/28 11:13:58;;;;;;;;;;;22.00;25.90;;;;;;5138565;27;19931;-60
2022/03/28 11:16:40;;;;;;;;;;;22.00;25.70;;;;;;5142796;27;19926;-60
2022/03/28 11:19:25;;;;;;;;;;;22.00;25.50;;;;;;5148283;27;19923;-59
2022/03/28 11:21:57;;;;;;;;;;;22.00;25.10;;;;;;5142597;27;19933;-60
2022/03/28 11:24:42;;;;;;;;;;;22.10;25.10;;;;;;5142609;27;20382;-61
2022/03/28 11:27:08;;;;;;;;;;;22.20;24.80;;;;;;5147599;27;20370;-58
2022/03/28 11:29:34;;;;;;;;;;;22.20;24.60;;;;;;5138624;27;19923;-59
2022/03/28 11:32:09;;;;;;;;;;;22.20;24.50;;;;;;5140729;27;19930;-58
2022/03/28 11:34:35;;;;;;;;;;;22.20;24.40;;;;;;5147888;27;19975;-58
2022/03/28 11:37:01;;;;;;;;;;;22.30;24.30;;;;;;5142410;27;19927;-62
2022/03/28 11:39:27;;;;;;;;;;;22.30;24.60;;;;;;5142325;27;19963;-59
2022/03/28 11:41:53;;;;;;;;;;;22.30;24.50;;;;;;5147858;27;19971;-58
2022/03/28 11:44:19;;;;;;;;;;;22.30;24.60;;;;;;5142228;27;20618;-58
2022/03/28 11:46:52;;;;;;;;;;;22.30;24.70;;;;;;5144202;27;19924;-58
2022/03/28 11:49:18;;;;;;;;;;;22.40;24.50;;;;;;5144021;27;19923;-60
2022/03/28 11:51:44;;;;;;;;;;;22.30;24.70;;;;;;5142278;27;19938;-57
2022/03/28 11:54:11;;;;;;;;;;;22.30;24.60;;;;;;5147663;27;20374;-58
2022/03/28 11:59:21;;;;;;;;;;;22.30;24.90;;;;;;5142181;27;19927;-58
2022/03/28 12:01:49;;;;;;;;;;;22.30;24.80;;;;;;5151499;27;19923;-61
2022/03/28 12:04:18;;;;;;;;;;;22.40;24.40;;;;;;5127258;27;20367;-57
2022/03/28 12:06:43;;;;;;;;;;;22.50;24.10;;;;;;5142479;27;19927;-59
2022/03/28 12:09:10;;;;;;;;;;;22.40;24.20;;;;;;5150464;27;20025;-57
2022/03/28 12:11:37;;;;;;;;;;;22.50;24.30;;;;;;5127849;27;20308;-60
2022/03/28 12:14:02;;;;;;;;;;;22.50;24.20;;;;;;5146182;27;20337;-59
2022/03/28 12:16:28;;;;;;;;;;;22.60;24.10;;;;;;5151638;27;20014;-59
2022/03/28 12:18:58;;;;;;;;;;;21.50;25.50;;;;;;5146096;27;19930;-57
2022/03/28 12:21:25;;;;;;;;;;;21.20;25.90;;;;;;5151309;27;20400;-58
2022/03/28 12:23:51;;;;;;;;;;;21.50;25.60;;;;;;5144276;27;20405;-59
2022/03/28 12:26:16;;;;;;;;;;;21.70;25.60;;;;;;5142044;27;19927;-58
2022/03/28 12:28:45;;;;;;;;;;;21.70;25.70;;;;;;5151402;27;19923;-58
2022/03/28 12:31:11;;;;;;;;;;;21.80;25.80;;;;;;5145619;27;20305;-58
2022/03/28 12:33:40;;;;;;;;;;;21.80;25.90;;;;;;5145837;27;20110;-59
2022/03/28 12:36:08;;;;;;;;;;;21.70;26.10;;;;;;5151324;27;20021;-57
2022/03/28 12:38:38;;;;;;;;;;;21.80;26.40;;;;;;5145538;27;19927;-58
2022/03/28 12:41:05;;;;;;;;;;;21.80;26.40;;;;;;5145600;27;20301;-56
2022/03/28 12:43:31;;;;;;;;;;;21.80;26.50;;;;;;5147253;27;20026;-59
2022/03/28 12:46:01;;;;;;;;;;;21.70;26.70;;;;;;5144124;27;20017;-59
2022/03/28 12:48:36;;;;;;;;;;;21.70;26.80;;;;;;5151292;27;19930;-58
2022/03/28 12:51:04;;;;;;;;;;;21.70;26.70;;;;;;5145612;27;19933;-59
2022/03/28 12:53:30;;;;;;;;;;;21.80;26.70;;;;;;5145577;27;19934;-57
2022/03/28 12:56:13;;;;;;;;;;;21.80;26.50;;;;;;5150899;27;19930;-59
2022/03/28 12:58:39;;;;;;;;;;;21.80;26.60;;;;;;5145024;27;19923;-59
2022/03/28 13:01:05;;;;;;;;;;;21.80;26.60;;;;;;5143225;27;19923;-57
2022/03/28 13:03:33;;;;;;;;;;;21.80;26.70;;;;;;5146944;27;19930;-58
2022/03/28 13:06:02;;;;;;;;;;;21.70;27.00;;;;;;5145071;27;19945;-59
2022/03/28 13:08:34;;;;;;;;;;;21.70;27.10;;;;;;5145265;27;19991;-59
2022/03/28 13:11:10;;;;;;;;;;;21.80;27.00;;;;;;5150045;27;20289;-57
2022/03/28 13:13:36;;;;;;;;;;;21.80;27.00;;;;;;5144577;27;19927;-59
2022/03/28 13:16:02;;;;;;;;;;;21.80;26.90;;;;;;5144924;27;19927;-58
2022/03/28 13:18:28;;;;;;;;;;;21.80;26.70;;;;;;5149495;27;19949;-59
2022/03/28 13:20:54;;;;;;;;;;;21.90;26.70;;;;;;5140858;27;20017;-59
2022/03/28 13:23:24;;;;;;;;;;;21.80;26.60;;;;;;5149295;27;19926;-59
2022/03/28 13:25:50;;;;;;;;;;;21.80;26.70;;;;;;5144830;27;20437;-59
2022/03/28 13:28:16;;;;;;;;;;;21.80;26.70;;;;;;5144902;27;20022;-59
2022/03/28 13:30:46;;;;;;;;;;;21.60;26.70;;;;;;5150546;27;20358;-58
2022/03/28 13:33:12;;;;;;;;;;;21.10;27.30;;;;;;5126290;27;19927;-59
2022/03/28 13:35:40;;;;;;;;;;;20.90;27.50;;;;;;5144464;27;19922;-58
2022/03/28 13:38:07;;;;;;;;;;;20.80;27.80;;;;;;5147564;27;19930;-57
2022/03/28 13:40:33;;;;;;;;;;;21.30;27.10;;;;;;5141094;27;19927;-58
2022/03/28 13:42:59;;;;;;;;;;;21.30;26.90;;;;;;5145249;27;19942;-57
2022/03/28 13:45:25;;;;;;;;;;;21.50;26.40;;;;;;5149526;27;20033;-59
2022/03/28 13:47:51;;;;;;;;;;;21.50;26.30;;;;;;5144320;27;20398;-58
2022/03/28 13:50:17;;;;;;;;;;;21.50;26.20;;;;;;5149577;27;19930;-58
2022/03/28 13:52:43;;;;;;;;;;;21.60;26.00;;;;;;5144188;27;19930;-58
2022/03/28 13:55:09;;;;;;;;;;;21.60;25.80;;;;;;5143624;27;20237;-58
2022/03/28 13:57:35;;;;;;;;;;;21.60;25.70;;;;;;5145609;27;19934;-58
2022/03/28 14:00:01;;;;;;;;;;;21.70;25.60;;;;;;5142793;27;19930;-59
2022/03/28 14:02:27;;;;;;;;;;;21.70;25.40;;;;;;5143955;27;20405;-58
2022/03/28 14:04:52;;;;;;;;;;;21.70;25.40;;;;;;5130963;27;20013;-59
2022/03/28 14:07:18;;;;;;;;;;;21.70;25.30;;;;;;5143878;27;20320;-59
2022/03/28 14:09:44;;;;;;;;;;;21.60;25.20;;;;;;5149298;27;19962;-55
2022/03/28 14:12:10;;;;;;;;;;;21.70;25.10;;;;;;5125050;27;19924;-58
2022/03/28 14:14:35;;;;;;;;;;;21.70;25.00;;;;;;5142340;27;19977;-56
2022/03/28 14:17:02;;;;;;;;;;;21.70;24.90;;;;;;5144876;27;19923;-58